^^
Your Local Weather - Clay, NY Station Historical Data
Daily Summary for September 9, 2017 Units:  English    Metric   Both
« Previous Day
Next Day »
Daily Weekly Monthly Yearly Custom
  High: Low: Average:
Temperature: 62.9 °F 44.7 °F 54.3 °F
Dew Point: 52.5 °F 42.8 °F 49 °F
Humidity: 94% 66% 83%
Wind Speed: 4.0mph 0.0mph 0.7mph
Wind Gust: 7.0mph - -
Wind- - WNW
Pressure: 30.36 in 30.22 in -
Precipitation: 0.00 in    
Historical Graphs
 
 
Tabular Data for September 9, 2017
Time Temperature Dew Point Pressure Wind Wind Speed Wind Gust Humidity Rainfall Rate (Hourly) solar
00:05 52.8 °F 49.3 °F 30.22 in North 1.0 mph 2.0 mph 88% 0.00 in 0 W/m2
00:11 52.6 °F 48.8 °F 30.22 in North 1.0 mph 2.0 mph 87% 0.00 in 0 W/m2
00:17 52.4 °F 48.6 °F 30.22 in North 1.0 mph 2.0 mph 87% 0.00 in 0 W/m2
00:23 52.2 °F 48.1 °F 30.22 in Calm   1.0 mph 86% 0.00 in 0 W/m2
00:29 52.1 °F 48.0 °F 30.22 in Calm     86% 0.00 in 0 W/m2
00:35 51.8 °F 47.7 °F 30.22 in Calm     86% 0.00 in 0 W/m2
00:41 51.7 °F 48.0 °F 30.22 in Calm     87% 0.00 in 0 W/m2
00:47 51.6 °F 47.9 °F 30.22 in Calm     87% 0.00 in 0 W/m2
00:53 51.5 °F 47.8 °F 30.22 in Calm     87% 0.00 in 0 W/m2
00:59 51.3 °F 47.6 °F 30.22 in Calm     87% 0.00 in 0 W/m2
01:05 51.0 °F 47.3 °F 30.22 in Calm     87% 0.00 in 0 W/m2
01:11 50.8 °F 47.4 °F 30.23 in Calm     88% 0.00 in 0 W/m2
01:17 50.7 °F 47.3 °F 30.22 in Calm     88% 0.00 in 0 W/m2
01:23 50.5 °F 47.4 °F 30.22 in Calm     89% 0.00 in 0 W/m2
01:29 50.4 °F 47.3 °F 30.23 in Calm     89% 0.00 in 0 W/m2
01:35 50.2 °F 47.1 °F 30.23 in Calm     89% 0.00 in 0 W/m2
01:41 49.9 °F 46.8 °F 30.23 in Calm     89% 0.00 in 0 W/m2
01:48 49.7 °F 46.6 °F 30.23 in Calm     89% 0.00 in 0 W/m2
01:53 49.5 °F 46.7 °F 30.23 in Calm     90% 0.00 in 0 W/m2
01:59 49.4 °F 46.6 °F 30.23 in Calm     90% 0.00 in 0 W/m2
02:05 49.2 °F 46.4 °F 30.23 in Calm     90% 0.00 in 0 W/m2
02:11 49.3 °F 46.5 °F 30.24 in Calm     90% 0.00 in 0 W/m2
02:17 49.4 °F 46.9 °F 30.24 in Calm     91% 0.00 in 0 W/m2
02:23 49.4 °F 46.9 °F 30.24 in Calm     91% 0.00 in 0 W/m2
02:29 49.5 °F 47.0 °F 30.24 in Calm     91% 0.00 in 0 W/m2
02:35 49.5 °F 47.0 °F 30.24 in Calm     91% 0.00 in 0 W/m2
02:41 49.3 °F 46.8 °F 30.24 in Calm     91% 0.00 in 0 W/m2
02:47 49.2 °F 46.7 °F 30.24 in Calm     91% 0.00 in 0 W/m2
02:53 48.8 °F 46.3 °F 30.24 in Calm     91% 0.00 in 0 W/m2
02:59 48.5 °F 46.0 °F 30.24 in Calm     91% 0.00 in 0 W/m2
03:05 48.4 °F 45.9 °F 30.24 in Calm     91% 0.00 in 0 W/m2
03:11 48.1 °F 45.6 °F 30.24 in Calm     91% 0.00 in 0 W/m2
03:17 47.8 °F 45.3 °F 30.25 in Calm     91% 0.00 in 0 W/m2
03:23 47.5 °F 45.0 °F 30.25 in Calm     91% 0.00 in 0 W/m2
03:29 47.4 °F 44.9 °F 30.25 in Calm     91% 0.00 in 0 W/m2
03:35 47.2 °F 45.0 °F 30.25 in Calm     92% 0.00 in 0 W/m2
03:41 47.2 °F 45.0 °F 30.25 in Calm     92% 0.00 in 0 W/m2
03:48 47.4 °F 45.2 °F 30.25 in Calm     92% 0.00 in 0 W/m2
03:53 47.5 °F 45.3 °F 30.25 in Calm     92% 0.00 in 0 W/m2
03:59 47.6 °F 45.4 °F 30.25 in Calm     92% 0.00 in 0 W/m2
04:05 47.8 °F 45.6 °F 30.25 in Calm     92% 0.00 in 0 W/m2
04:11 47.9 °F 46.0 °F 30.25 in Calm     93% 0.00 in 0 W/m2
04:17 48.0 °F 46.1 °F 30.25 in Calm     93% 0.00 in 0 W/m2
04:23 48.3 °F 46.4 °F 30.25 in Calm     93% 0.00 in 0 W/m2
04:29 48.5 °F 46.6 °F 30.25 in Calm     93% 0.00 in 0 W/m2
04:35 48.4 °F 46.5 °F 30.25 in Calm     93% 0.00 in 0 W/m2
04:41 48.3 °F 46.4 °F 30.25 in Calm     93% 0.00 in 0 W/m2
04:47 48.0 °F 46.1 °F 30.26 in Calm     93% 0.00 in 0 W/m2
04:53 47.7 °F 45.5 °F 30.26 in Calm     92% 0.00 in 0 W/m2
04:59 47.4 °F 45.5 °F 30.26 in Calm     93% 0.00 in 0 W/m2
05:05 47.2 °F 45.0 °F 30.26 in Calm     92% 0.00 in 0 W/m2
05:11 47.0 °F 45.1 °F 30.26 in Calm     93% 0.00 in 0 W/m2
05:17 46.8 °F 44.9 °F 30.26 in Calm     93% 0.00 in 0 W/m2
05:23 46.5 °F 44.6 °F 30.27 in Calm     93% 0.00 in 0 W/m2
05:29 46.2 °F 44.3 °F 30.27 in Calm     93% 0.00 in 0 W/m2
05:35 46.0 °F 44.1 °F 30.27 in Calm     93% 0.00 in 0 W/m2
05:41 45.7 °F 43.8 °F 30.27 in Calm     93% 0.00 in 0 W/m2
05:47 45.5 °F 43.6 °F 30.27 in Calm     93% 0.00 in 0 W/m2
05:53 45.4 °F 43.5 °F 30.27 in Calm     93% 0.00 in 0 W/m2
05:59 45.1 °F 43.2 °F 30.27 in Calm     93% 0.00 in 0 W/m2
06:05 44.9 °F 43.0 °F 30.27 in Calm     93% 0.00 in 0 W/m2
06:11 44.8 °F 42.9 °F 30.27 in Calm     93% 0.00 in 0 W/m2
06:17 44.8 °F 42.9 °F 30.28 in Calm     93% 0.00 in 0 W/m2
06:23 44.8 °F 42.9 °F 30.28 in Calm     93% 0.00 in 0 W/m2
06:29 44.8 °F 42.9 °F 30.28 in Calm     93% 0.00 in 0 W/m2
06:35 44.8 °F 42.9 °F 30.28 in Calm     93% 0.00 in 0 W/m2
06:41 44.7 °F 42.8 °F 30.28 in Calm     93% 0.00 in 5 W/m2
06:47 44.7 °F 42.8 °F 30.29 in Calm     93% 0.00 in 7 W/m2
06:53 44.7 °F 42.8 °F 30.29 in Calm     93% 0.00 in 9 W/m2
06:59 45.1 °F 43.2 °F 30.29 in Calm     93% 0.00 in 9 W/m2
07:05 45.6 °F 44.0 °F 30.30 in Calm     94% 0.00 in 14 W/m2
07:11 46.0 °F 44.4 °F 30.30 in Calm     94% 0.00 in 16 W/m2
07:17 46.4 °F 44.8 °F 30.30 in Calm     94% 0.00 in 12 W/m2
07:23 46.7 °F 45.1 °F 30.30 in Calm     94% 0.00 in 12 W/m2
07:29 46.9 °F 45.3 °F 30.30 in Calm     94% 0.00 in 16 W/m2
07:35 47.2 °F 45.6 °F 30.30 in Calm     94% 0.00 in 16 W/m2
07:41 47.7 °F 46.1 °F 30.31 in Calm     94% 0.00 in 30 W/m2
07:47 47.9 °F 46.3 °F 30.31 in Calm     94% 0.00 in 33 W/m2
07:55 48.4 °F 46.8 °F 30.31 in Calm     94% 0.00 in 35 W/m2
08:02 48.7 °F 47.1 °F 30.31 in Calm     94% 0.00 in 39 W/m2
08:07 48.9 °F 47.2 °F 30.31 in Calm     94% 0.00 in 49 W/m2
08:13 49.1 °F 47.4 °F 30.31 in Calm     94% 0.00 in 46 W/m2
08:19 49.3 °F 47.6 °F 30.31 in Calm     94% 0.00 in 67 W/m2
08:25 49.5 °F 47.8 °F 30.31 in Calm     94% 0.00 in 72 W/m2
08:31 49.8 °F 48.1 °F 30.31 in Calm     94% 0.00 in 111 W/m2
08:38 50.1 °F 48.4 °F 30.31 in Calm     94% 0.00 in 113 W/m2
08:43 50.5 °F 48.8 °F 30.32 in Calm     94% 0.00 in 220 W/m2
08:49 51.2 °F 49.5 °F 30.32 in Calm   1.0 mph 94% 0.00 in 200 W/m2
08:55 51.6 °F 49.9 °F 30.32 in North 1.0 mph 1.0 mph 94% 0.00 in 241 W/m2
09:01 52.5 °F 50.8 °F 30.32 in Calm   1.0 mph 94% 0.00 in 192 W/m2
09:08 53.3 °F 51.3 °F 30.32 in Calm   1.0 mph 93% 0.00 in 178 W/m2
09:13 53.6 °F 51.0 °F 30.32 in Calm     91% 0.00 in 190 W/m2
09:19 54.2 °F 50.7 °F 30.32 in Calm     88% 0.00 in 232 W/m2
09:25 54.6 °F 50.2 °F 30.32 in Calm   2.0 mph 85% 0.00 in 230 W/m2
09:31 55.2 °F 50.1 °F 30.33 in West 1.0 mph 2.0 mph 83% 0.00 in 236 W/m2
09:37 55.8 °F 50.4 °F 30.32 in West 1.0 mph 2.0 mph 82% 0.00 in 315 W/m2
09:43 56.3 °F 50.2 °F 30.33 in West 1.0 mph 1.0 mph 80% 0.00 in 339 W/m2
09:49 56.7 °F 49.9 °F 30.33 in Calm     78% 0.00 in 204 W/m2
09:55 57.7 °F 49.8 °F 30.33 in North 1.0 mph 2.0 mph 75% 0.00 in 780 W/m2
10:02 58.3 °F 51.8 °F 30.33 in NW 1.0 mph 1.0 mph 79% 0.00 in 165 W/m2
10:07 59.3 °F 51.0 °F 30.33 in NW 1.0 mph 1.0 mph 74% 0.00 in 621 W/m2
10:13 58.8 °F 50.9 °F 30.33 in Calm   2.0 mph 75% 0.00 in 190 W/m2
10:19 58.0 °F 50.1 °F 30.33 in Calm     75% 0.00 in 373 W/m2
10:25 58.2 °F 51.0 °F 30.33 in Calm   2.0 mph 77% 0.00 in 269 W/m2
10:31 58.3 °F 50.4 °F 30.33 in WNW 1.0 mph 1.0 mph 75% 0.00 in 246 W/m2
10:37 58.1 °F 50.2 °F 30.33 in WNW 1.0 mph 1.0 mph 75% 0.00 in 272 W/m2
10:43 58.7 °F 51.9 °F 30.33 in NW 1.0 mph 4.0 mph 78% 0.00 in 313 W/m2
10:49 58.9 °F 50.3 °F 30.33 in NW 2.0 mph 3.0 mph 73% 0.00 in 325 W/m2
10:55 60.0 °F 52.1 °F 30.33 in NW 2.0 mph 3.0 mph 75% 0.00 in 689 W/m2
11:01 60.3 °F 50.9 °F 30.33 in WNW 1.0 mph 7.0 mph 71% 0.00 in 313 W/m2
11:07 60.0 °F 51.3 °F 30.33 in NNW 2.0 mph 7.0 mph 73% 0.00 in 251 W/m2
11:13 59.8 °F 51.5 °F 30.33 in WNW 2.0 mph 2.0 mph 74% 0.00 in 299 W/m2
11:19 59.8 °F 51.5 °F 30.33 in NW 2.0 mph 2.0 mph 74% 0.00 in 295 W/m2
11:25 59.9 °F 50.8 °F 30.33 in WNW 2.0 mph 4.0 mph 72% 0.00 in 608 W/m2
11:31 60.8 °F 52.1 °F 30.33 in NNW 2.0 mph 2.0 mph 73% 0.00 in 1071 W/m2
11:37 62.2 °F 51.9 °F 30.33 in NNW 1.0 mph 3.0 mph 69% 0.00 in 308 W/m2
11:43 60.7 °F 50.5 °F 30.33 in NNW 1.0 mph 1.0 mph 69% 0.00 in 262 W/m2
11:49 59.7 °F 49.9 °F 30.33 in NNW 1.0 mph 3.0 mph 70% 0.00 in 218 W/m2
11:55 59.4 °F 50.7 °F 30.33 in WNW 2.0 mph 3.0 mph 73% 0.00 in 320 W/m2
12:02 59.6 °F 49.8 °F 30.33 in NW 3.0 mph 3.0 mph 70% 0.00 in 399 W/m2
12:07 60.3 °F 50.1 °F 30.33 in North 3.0 mph 3.0 mph 69% 0.00 in 480 W/m2
12:13 60.9 °F 49.9 °F 30.33 in West 2.0 mph 3.0 mph 67% 0.00 in 369 W/m2
12:19 60.4 °F 50.2 °F 30.33 in NNW 2.0 mph 3.0 mph 69% 0.00 in 374 W/m2
12:25 60.1 °F 49.1 °F 30.33 in North 3.0 mph 5.0 mph 67% 0.00 in 313 W/m2
12:31 60.2 °F 51.1 °F 30.33 in North 3.0 mph 3.0 mph 72% 0.00 in 264 W/m2
12:38 60.2 °F 50.8 °F 30.33 in NW 1.0 mph 3.0 mph 71% 0.00 in 216 W/m2
12:43 60.0 °F 50.2 °F 30.33 in NW 2.0 mph 3.0 mph 70% 0.00 in 213 W/m2
12:49 59.9 °F 50.1 °F 30.33 in North 2.0 mph 3.0 mph 70% 0.00 in 128 W/m2
12:55 59.5 °F 49.7 °F 30.33 in NW 2.0 mph 3.0 mph 70% 0.00 in 142 W/m2
13:02 59.1 °F 49.3 °F 30.33 in North 2.0 mph 4.0 mph 70% 0.00 in 123 W/m2
13:07 59.0 °F 50.0 °F 30.33 in NW 2.0 mph 4.0 mph 72% 0.00 in 114 W/m2
13:13 59.0 °F 50.0 °F 30.34 in NNW 2.0 mph 5.0 mph 72% 0.00 in 130 W/m2
13:19 58.8 °F 49.8 °F 30.34 in NNE 2.0 mph 2.0 mph 72% 0.00 in 91 W/m2
13:25 58.6 °F 49.6 °F 30.34 in NNW 2.0 mph 5.0 mph 72% 0.00 in 84 W/m2
13:31 58.4 °F 50.1 °F 30.34 in NW 2.0 mph 3.0 mph 74% 0.00 in 114 W/m2
13:37 58.3 °F 50.0 °F 30.34 in North 2.0 mph 3.0 mph 74% 0.00 in 120 W/m2
13:43 58.3 °F 49.7 °F 30.34 in NNW 2.0 mph 5.0 mph 73% 0.00 in 211 W/m2
13:49 58.6 °F 50.3 °F 30.34 in North 3.0 mph 3.0 mph 74% 0.00 in 272 W/m2
13:55 59.4 °F 51.1 °F 30.34 in NNW 2.0 mph 3.0 mph 74% 0.00 in 366 W/m2
14:02 61.8 °F 51.5 °F 30.33 in NNW 2.0 mph 3.0 mph 69% 0.00 in 427 W/m2
14:07 61.5 °F 52.0 °F 30.33 in NW 3.0 mph 3.0 mph 71% 0.00 in 401 W/m2
14:13 61.5 °F 50.8 °F 30.33 in NW 2.0 mph 5.0 mph 68% 0.00 in 455 W/m2
14:19 61.4 °F 51.1 °F 30.33 in NE 3.0 mph 6.0 mph 69% 0.00 in 552 W/m2
14:25 61.4 °F 51.5 °F 30.33 in North 4.0 mph 6.0 mph 70% 0.00 in 457 W/m2
14:31 62.0 °F 52.5 °F 30.33 in WNW 3.0 mph 3.0 mph 71% 0.00 in 341 W/m2
14:37 61.5 °F 52.0 °F 30.33 in NW 2.0 mph 3.0 mph 71% 0.00 in 352 W/m2
14:43 61.4 °F 51.1 °F 30.33 in North 2.0 mph 4.0 mph 69% 0.00 in 325 W/m2
14:49 61.2 °F 51.3 °F 30.32 in NNW 2.0 mph 2.0 mph 70% 0.00 in 415 W/m2
14:55 62.0 °F 51.7 °F 30.32 in NW 1.0 mph 2.0 mph 69% 0.00 in 338 W/m2
15:01 61.7 °F 51.8 °F 30.32 in NNW 1.0 mph 2.0 mph 70% 0.00 in 301 W/m2
15:07 61.3 °F 51.4 °F 30.32 in NW 2.0 mph 3.0 mph 70% 0.00 in 334 W/m2
15:13 61.6 °F 51.7 °F 30.32 in NNW 2.0 mph 4.0 mph 70% 0.00 in 397 W/m2
15:19 62.0 °F 51.3 °F 30.32 in NNW 1.0 mph 3.0 mph 68% 0.00 in 534 W/m2
15:25 61.5 °F 51.6 °F 30.32 in NW 2.0 mph 4.0 mph 70% 0.00 in 322 W/m2
15:31 61.6 °F 51.3 °F 30.31 in NNW 2.0 mph 2.0 mph 69% 0.00 in 338 W/m2
15:37 61.4 °F 51.5 °F 30.31 in West 2.0 mph 3.0 mph 70% 0.00 in 338 W/m2
15:43 61.7 °F 52.2 °F 30.31 in NW 3.0 mph 4.0 mph 71% 0.00 in 564 W/m2
15:49 62.9 °F 51.8 °F 30.32 in NW 2.0 mph 2.0 mph 67% 0.00 in 708 W/m2
15:55 62.2 °F 50.7 °F 30.32 in WSW 2.0 mph 2.0 mph 66% 0.00 in 241 W/m2
16:01 62.6 °F 52.3 °F 30.32 in NW 2.0 mph 6.0 mph 69% 0.00 in 833 W/m2
16:07 61.9 °F 50.8 °F 30.31 in NNW 3.0 mph 6.0 mph 67% 0.00 in 216 W/m2
16:13 61.1 °F 50.8 °F 30.32 in North 3.0 mph 3.0 mph 69% 0.00 in 346 W/m2
16:19 60.5 °F 50.7 °F 30.32 in WNW 3.0 mph 6.0 mph 70% 0.00 in 227 W/m2
16:25 60.2 °F 50.8 °F 30.31 in NNW 3.0 mph 6.0 mph 71% 0.00 in 204 W/m2
16:31 60.1 °F 50.7 °F 30.32 in North 3.0 mph 6.0 mph 71% 0.00 in 299 W/m2
16:37 60.9 °F 51.0 °F 30.31 in NW 3.0 mph 6.0 mph 70% 0.00 in 290 W/m2
16:43 61.8 °F 51.5 °F 30.31 in NW 3.0 mph 3.0 mph 69% 0.00 in 272 W/m2
16:49 61.6 °F 51.7 °F 30.32 in NNW 3.0 mph 3.0 mph 70% 0.00 in 304 W/m2
16:55 62.3 °F 51.2 °F 30.31 in North 3.0 mph 4.0 mph 67% 0.00 in 635 W/m2
17:02 62.0 °F 51.3 °F 30.32 in NNE 3.0 mph 3.0 mph 68% 0.00 in 162 W/m2
17:07 61.5 °F 51.2 °F 30.32 in East 2.0 mph 3.0 mph 69% 0.00 in 155 W/m2
17:13 61.2 °F 51.3 °F 30.32 in WNW 1.0 mph 2.0 mph 70% 0.00 in 156 W/m2
17:19 60.7 °F 50.9 °F 30.32 in North 1.0 mph 2.0 mph 70% 0.00 in 79 W/m2
17:25 60.3 °F 51.2 °F 30.32 in NNW 1.0 mph 2.0 mph 72% 0.00 in 60 W/m2
17:31 59.9 °F 50.8 °F 30.32 in NW 2.0 mph 4.0 mph 72% 0.00 in 359 W/m2
17:37 60.5 °F 51.0 °F 30.32 in WNW 2.0 mph 4.0 mph 71% 0.00 in 360 W/m2
17:43 61.1 °F 52.0 °F 30.32 in North 2.0 mph 3.0 mph 72% 0.00 in 160 W/m2
17:49 61.2 °F 51.7 °F 30.32 in North 1.0 mph 5.0 mph 71% 0.00 in 107 W/m2
17:55 60.7 °F 50.9 °F 30.33 in NNW 1.0 mph 5.0 mph 70% 0.00 in 97 W/m2
18:02 60.0 °F 50.6 °F 30.33 in NW 2.0 mph 3.0 mph 71% 0.00 in 90 W/m2
18:08 59.7 °F 50.7 °F 30.33 in NNW 1.0 mph 3.0 mph 72% 0.00 in 81 W/m2
18:13 59.5 °F 51.2 °F 30.32 in NW 1.0 mph 1.0 mph 74% 0.00 in 74 W/m2
18:19 59.2 °F 50.5 °F 30.32 in NW 1.0 mph 3.0 mph 73% 0.00 in 62 W/m2
18:25 58.8 °F 50.5 °F 30.33 in NW 1.0 mph 3.0 mph 74% 0.00 in 40 W/m2
18:31 58.5 °F 50.6 °F 30.33 in NW 1.0 mph 1.0 mph 75% 0.00 in 25 W/m2
18:37 58.0 °F 50.5 °F 30.33 in NW 1.0 mph 1.0 mph 76% 0.00 in 23 W/m2
18:43 57.7 °F 50.5 °F 30.33 in Calm   1.0 mph 77% 0.00 in 21 W/m2
18:49 57.3 °F 50.5 °F 30.33 in Calm     78% 0.00 in 26 W/m2
18:55 57.1 °F 50.6 °F 30.33 in Calm     79% 0.00 in 26 W/m2
19:02 57.0 °F 50.5 °F 30.33 in Calm     79% 0.00 in 16 W/m2
19:07 56.8 °F 50.4 °F 30.33 in Calm     79% 0.00 in 12 W/m2
19:13 56.7 °F 50.3 °F 30.33 in Calm     79% 0.00 in 9 W/m2
19:19 56.5 °F 50.1 °F 30.33 in Calm     79% 0.00 in 5 W/m2
19:25 56.3 °F 50.5 °F 30.33 in Calm     81% 0.00 in 0 W/m2
19:31 56.0 °F 50.6 °F 30.33 in Calm     82% 0.00 in 0 W/m2
19:37 55.7 °F 50.6 °F 30.33 in Calm     83% 0.00 in 0 W/m2
19:43 55.5 °F 50.7 °F 30.33 in Calm     84% 0.00 in 0 W/m2
19:49 55.3 °F 50.9 °F 30.34 in Calm     85% 0.00 in 0 W/m2
19:55 55.2 °F 50.8 °F 30.34 in Calm     85% 0.00 in 0 W/m2
20:02 55.1 °F 50.7 °F 30.34 in Calm     85% 0.00 in 0 W/m2
20:08 55.1 °F 50.7 °F 30.34 in Calm     85% 0.00 in 0 W/m2
20:13 55.2 °F 51.1 °F 30.34 in Calm     86% 0.00 in 0 W/m2
20:19 55.2 °F 51.1 °F 30.34 in Calm     86% 0.00 in 0 W/m2
20:25 55.2 °F 51.1 °F 30.34 in Calm     86% 0.00 in 0 W/m2
20:31 55.3 °F 51.2 °F 30.34 in Calm     86% 0.00 in 0 W/m2
20:37 55.2 °F 50.8 °F 30.34 in Calm     85% 0.00 in 0 W/m2
20:43 55.2 °F 50.8 °F 30.34 in Calm     85% 0.00 in 0 W/m2
20:49 55.2 °F 50.8 °F 30.35 in Calm     85% 0.00 in 0 W/m2
20:57 55.0 °F 50.6 °F 30.35 in Calm     85% 0.00 in 0 W/m2
21:03 54.6 °F 50.5 °F 30.35 in Calm     86% 0.00 in 0 W/m2
21:09 54.3 °F 50.5 °F 30.35 in Calm     87% 0.00 in 0 W/m2
21:15 54.1 °F 50.6 °F 30.35 in Calm     88% 0.00 in 0 W/m2
21:21 53.8 °F 50.6 °F 30.35 in Calm     89% 0.00 in 0 W/m2
21:27 53.5 °F 50.3 °F 30.35 in Calm     89% 0.00 in 0 W/m2
21:33 53.3 °F 50.1 °F 30.35 in Calm     89% 0.00 in 0 W/m2
21:39 53.0 °F 49.8 °F 30.35 in Calm     89% 0.00 in 0 W/m2
21:45 52.9 °F 49.7 °F 30.35 in Calm     89% 0.00 in 0 W/m2
21:51 52.8 °F 49.9 °F 30.35 in Calm     90% 0.00 in 0 W/m2
21:57 52.7 °F 49.8 °F 30.35 in Calm     90% 0.00 in 0 W/m2
22:03 52.9 °F 50.0 °F 30.36 in Calm     90% 0.00 in 0 W/m2
22:09 52.9 °F 50.0 °F 30.36 in Calm     90% 0.00 in 0 W/m2
22:15 53.0 °F 50.1 °F 30.35 in Calm     90% 0.00 in 0 W/m2
22:21 53.0 °F 50.4 °F 30.36 in Calm     91% 0.00 in 0 W/m2
22:27 53.1 °F 50.5 °F 30.36 in Calm     91% 0.00 in 0 W/m2
22:33 53.2 °F 50.6 °F 30.36 in Calm     91% 0.00 in 0 W/m2
22:39 53.2 °F 50.6 °F 30.36 in Calm     91% 0.00 in 0 W/m2
22:45 53.2 °F 50.6 °F 30.36 in Calm     91% 0.00 in 0 W/m2
22:51 53.2 °F 50.6 °F 30.36 in Calm     91% 0.00 in 0 W/m2
22:57 53.3 °F 50.7 °F 30.36 in Calm     91% 0.00 in 0 W/m2
23:03 53.3 °F 50.7 °F 30.36 in Calm     91% 0.00 in 0 W/m2
23:09 53.3 °F 50.7 °F 30.36 in Calm     91% 0.00 in 0 W/m2
23:15 53.3 °F 50.7 °F 30.36 in Calm     91% 0.00 in 0 W/m2
23:21 53.3 °F 50.7 °F 30.36 in Calm     91% 0.00 in 0 W/m2
23:27 53.2 °F 50.6 °F 30.36 in Calm     91% 0.00 in 0 W/m2
23:33 53.1 °F 50.5 °F 30.36 in Calm     91% 0.00 in 0 W/m2
23:39 52.9 °F 50.3 °F 30.35 in Calm     91% 0.00 in 0 W/m2
23:45 52.7 °F 50.1 °F 30.36 in Calm     91% 0.00 in 0 W/m2
23:51 52.4 °F 49.8 °F 30.35 in Calm     91% 0.00 in 0 W/m2
23:57 52.1 °F 49.6 °F 30.35 in Calm     91% 0.00 in 0 W/m2
Country Meadow, Clay, NY, USA
Compliments of Weather Underground - 2 mb